sensor_id;sensor_type;location;lat;lon;timestamp;temperature;humidity
2973;DHT22;1496;51.404;7.232;2023-04-25T00:02:23;6.10;99.90
2973;DHT22;1496;51.404;7.232;2023-04-25T00:04:50;6.20;99.90
2973;DHT22;1496;51.404;7.232;2023-04-25T00:07:18;6.20;99.90
2973;DHT22;1496;51.404;7.232;2023-04-25T00:09:46;6.20;99.90
2973;DHT22;1496;51.404;7.232;2023-04-25T00:12:14;6.30;99.90
2973;DHT22;1496;51.404;7.232;2023-04-25T00:14:41;6.30;99.90
2973;DHT22;1496;51.404;7.232;2023-04-25T00:17:07;6.30;99.90
2973;DHT22;1496;51.404;7.232;2023-04-25T00:19:33;6.30;99.90
2973;DHT22;1496;51.404;7.232;2023-04-25T00:22:00;6.30;99.90
2973;DHT22;1496;51.404;7.232;2023-04-25T00:24:28;6.30;99.90
2973;DHT22;1496;51.404;7.232;2023-04-25T00:26:54;6.30;99.90
2973;DHT22;1496;51.404;7.232;2023-04-25T00:29:21;6.30;99.90
2973;DHT22;1496;51.404;7.232;2023-04-25T00:31:48;6.30;99.90
2973;DHT22;1496;51.404;7.232;2023-04-25T00:34:14;6.30;99.90
2973;DHT22;1496;51.404;7.232;2023-04-25T00:36:42;6.30;99.90
2973;DHT22;1496;51.404;7.232;2023-04-25T00:39:09;6.40;99.90
2973;DHT22;1496;51.404;7.232;2023-04-25T00:41:36;6.40;99.90
2973;DHT22;1496;51.404;7.232;2023-04-25T00:44:05;6.40;99.90
2973;DHT22;1496;51.404;7.232;2023-04-25T00:46:34;6.40;99.90
2973;DHT22;1496;51.404;7.232;2023-04-25T00:49:02;6.40;99.90
2973;DHT22;1496;51.404;7.232;2023-04-25T00:51:31;6.30;99.90
2973;DHT22;1496;51.404;7.232;2023-04-25T00:54:00;6.40;99.90
2973;DHT22;1496;51.404;7.232;2023-04-25T00:56:28;6.40;99.90
2973;DHT22;1496;51.404;7.232;2023-04-25T00:58:54;6.40;99.90
2973;DHT22;1496;51.404;7.232;2023-04-25T01:01:23;6.30;99.90
2973;DHT22;1496;51.404;7.232;2023-04-25T01:03:52;6.40;99.90
2973;DHT22;1496;51.404;7.232;2023-04-25T01:06:21;6.30;99.90
2973;DHT22;1496;51.404;7.232;2023-04-25T01:08:48;6.30;99.90
2973;DHT22;1496;51.404;7.232;2023-04-25T01:11:15;6.40;99.90
2973;DHT22;1496;51.404;7.232;2023-04-25T01:13:42;6.40;99.90
2973;DHT22;1496;51.404;7.232;2023-04-25T01:16:10;6.40;99.90
2973;DHT22;1496;51.404;7.232;2023-04-25T01:18:39;6.30;99.90
2973;DHT22;1496;51.404;7.232;2023-04-25T01:21:08;6.40;99.90
2973;DHT22;1496;51.404;7.232;2023-04-25T01:23:41;6.40;99.90
2973;DHT22;1496;51.404;7.232;2023-04-25T01:26:11;6.50;99.90
2973;DHT22;1496;51.404;7.232;2023-04-25T01:28:39;6.50;99.90
2973;DHT22;1496;51.404;7.232;2023-04-25T01:31:11;6.40;99.90
2973;DHT22;1496;51.404;7.232;2023-04-25T01:33:40;6.40;99.90
2973;DHT22;1496;51.404;7.232;2023-04-25T01:36:07;6.40;99.90
2973;DHT22;1496;51.404;7.232;2023-04-25T01:38:35;6.40;99.90
2973;DHT22;1496;51.404;7.232;2023-04-25T01:41:01;6.30;99.90
2973;DHT22;1496;51.404;7.232;2023-04-25T01:43:28;6.40;99.90
2973;DHT22;1496;51.404;7.232;2023-04-25T01:45:56;6.40;99.90
2973;DHT22;1496;51.404;7.232;2023-04-25T01:48:25;6.40;99.90
2973;DHT22;1496;51.404;7.232;2023-04-25T01:50:53;6.30;99.90
2973;DHT22;1496;51.404;7.232;2023-04-25T01:53:22;6.30;99.90
2973;DHT22;1496;51.404;7.232;2023-04-25T01:55:49;6.30;99.90
2973;DHT22;1496;51.404;7.232;2023-04-25T01:58:19;6.20;99.90
2973;DHT22;1496;51.404;7.232;2023-04-25T02:01:00;6.30;99.90
2973;DHT22;1496;51.404;7.232;2023-04-25T02:03:34;6.30;99.90
2973;DHT22;1496;51.404;7.232;2023-04-25T02:06:03;6.40;99.90
2973;DHT22;1496;51.404;7.232;2023-04-25T02:08:34;6.40;99.90
2973;DHT22;1496;51.404;7.232;2023-04-25T02:11:01;6.40;99.90
2973;DHT22;1496;51.404;7.232;2023-04-25T02:13:38;6.40;99.90
2973;DHT22;1496;51.404;7.232;2023-04-25T02:16:18;6.40;99.90
2973;DHT22;1496;51.404;7.232;2023-04-25T02:18:45;6.30;99.90
2973;DHT22;1496;51.404;7.232;2023-04-25T02:21:14;6.30;99.90
2973;DHT22;1496;51.404;7.232;2023-04-25T02:23:43;6.40;99.90
2973;DHT22;1496;51.404;7.232;2023-04-25T02:26:13;6.30;99.90
2973;DHT22;1496;51.404;7.232;2023-04-25T02:28:42;6.30;99.90
2973;DHT22;1496;51.404;7.232;2023-04-25T02:31:08;6.40;99.90
2973;DHT22;1496;51.404;7.232;2023-04-25T02:33:35;6.30;99.90
2973;DHT22;1496;51.404;7.232;2023-04-25T02:36:05;6.30;99.90
2973;DHT22;1496;51.404;7.232;2023-04-25T02:38:31;6.30;99.90
2973;DHT22;1496;51.404;7.232;2023-04-25T02:40:58;6.30;99.90
2973;DHT22;1496;51.404;7.232;2023-04-25T02:43:26;6.30;99.90
2973;DHT22;1496;51.404;7.232;2023-04-25T02:45:53;6.20;99.90
2973;DHT22;1496;51.404;7.232;2023-04-25T02:48:20;6.20;99.90
2973;DHT22;1496;51.404;7.232;2023-04-25T02:50:47;6.20;99.90
2973;DHT22;1496;51.404;7.232;2023-04-25T02:53:13;6.20;99.90
2973;DHT22;1496;51.404;7.232;2023-04-25T02:55:46;6.20;99.90
2973;DHT22;1496;51.404;7.232;2023-04-25T02:58:13;6.20;99.90
2973;DHT22;1496;51.404;7.232;2023-04-25T03:00:53;6.20;99.90
2973;DHT22;1496;51.404;7.232;2023-04-25T03:03:20;6.20;99.90
2973;DHT22;1496;51.404;7.232;2023-04-25T03:05:51;6.20;99.90
2973;DHT22;1496;51.404;7.232;2023-04-25T03:08:26;6.30;99.90
2973;DHT22;1496;51.404;7.232;2023-04-25T03:11:00;6.30;99.90
2973;DHT22;1496;51.404;7.232;2023-04-25T03:13:28;6.30;99.90
2973;DHT22;1496;51.404;7.232;2023-04-25T03:15:57;6.30;99.90
2973;DHT22;1496;51.404;7.232;2023-04-25T03:18:23;6.30;99.90
2973;DHT22;1496;51.404;7.232;2023-04-25T03:20:49;6.30;99.90
2973;DHT22;1496;51.404;7.232;2023-04-25T03:23:17;6.30;99.90
2973;DHT22;1496;51.404;7.232;2023-04-25T03:25:44;6.30;99.90
2973;DHT22;1496;51.404;7.232;2023-04-25T03:28:11;6.30;99.90
2973;DHT22;1496;51.404;7.232;2023-04-25T03:30:38;6.30;99.90
2973;DHT22;1496;51.404;7.232;2023-04-25T03:33:06;6.30;99.90
2973;DHT22;1496;51.404;7.232;2023-04-25T03:35:33;6.20;99.90
2973;DHT22;1496;51.404;7.232;2023-04-25T03:37:59;6.20;99.90
2973;DHT22;1496;51.404;7.232;2023-04-25T03:40:30;6.20;99.90
2973;DHT22;1496;51.404;7.232;2023-04-25T03:43:12;6.20;99.90
2973;DHT22;1496;51.404;7.232;2023-04-25T03:45:44;6.20;99.90
2973;DHT22;1496;51.404;7.232;2023-04-25T03:48:11;6.20;99.90
2973;DHT22;1496;51.404;7.232;2023-04-25T03:50:38;6.20;99.90
2973;DHT22;1496;51.404;7.232;2023-04-25T03:53:05;6.30;99.90
2973;DHT22;1496;51.404;7.232;2023-04-25T03:55:52;6.30;99.90
2973;DHT22;1496;51.404;7.232;2023-04-25T03:58:20;6.40;99.90
2973;DHT22;1496;51.404;7.232;2023-04-25T04:00:48;6.30;99.90
2973;DHT22;1496;51.404;7.232;2023-04-25T04:03:15;6.30;99.90
2973;DHT22;1496;51.404;7.232;2023-04-25T04:05:43;6.40;99.90
2973;DHT22;1496;51.404;7.232;2023-04-25T04:08:11;6.30;99.90
2973;DHT22;1496;51.404;7.232;2023-04-25T04:10:39;6.20;99.90
2973;DHT22;1496;51.404;7.232;2023-04-25T04:13:07;6.20;99.90
2973;DHT22;1496;51.404;7.232;2023-04-25T04:15:33;6.20;99.90
2973;DHT22;1496;51.404;7.232;2023-04-25T04:18:01;6.20;99.90
2973;DHT22;1496;51.404;7.232;2023-04-25T04:20:33;6.20;99.90
2973;DHT22;1496;51.404;7.232;2023-04-25T04:23:00;6.20;99.90
2973;DHT22;1496;51.404;7.232;2023-04-25T04:25:27;6.30;99.90
2973;DHT22;1496;51.404;7.232;2023-04-25T04:28:17;6.30;99.90
2973;DHT22;1496;51.404;7.232;2023-04-25T04:31:04;6.40;99.90
2973;DHT22;1496;51.404;7.232;2023-04-25T04:33:34;6.40;99.90
2973;DHT22;1496;51.404;7.232;2023-04-25T04:36:04;6.50;99.90
2973;DHT22;1496;51.404;7.232;2023-04-25T04:38:34;6.30;99.90
2973;DHT22;1496;51.404;7.232;2023-04-25T04:41:04;6.20;99.90
2973;DHT22;1496;51.404;7.232;2023-04-25T04:43:49;6.20;99.90
2973;DHT22;1496;51.404;7.232;2023-04-25T04:46:36;6.10;99.90
2973;DHT22;1496;51.404;7.232;2023-04-25T04:49:26;6.10;99.90
2973;DHT22;1496;51.404;7.232;2023-04-25T04:52:15;6.10;99.90
2973;DHT22;1496;51.404;7.232;2023-04-25T04:54:56;6.10;99.90
2973;DHT22;1496;51.404;7.232;2023-04-25T04:57:41;6.10;98.60
2973;DHT22;1496;51.404;7.232;2023-04-25T05:00:19;6.00;99.90
2973;DHT22;1496;51.404;7.232;2023-04-25T05:03:13;5.90;99.90
2973;DHT22;1496;51.404;7.232;2023-04-25T05:05:58;6.00;99.90
2973;DHT22;1496;51.404;7.232;2023-04-25T05:08:41;5.90;99.90
2973;DHT22;1496;51.404;7.232;2023-04-25T05:11:28;5.80;99.90
2973;DHT22;1496;51.404;7.232;2023-04-25T05:14:03;5.80;99.90
2973;DHT22;1496;51.404;7.232;2023-04-25T05:16:56;5.80;99.90
2973;DHT22;1496;51.404;7.232;2023-04-25T05:20:03;5.70;99.90
2973;DHT22;1496;51.404;7.232;2023-04-25T05:22:50;5.70;99.90
2973;DHT22;1496;51.404;7.232;2023-04-25T05:25:31;5.60;99.90
2973;DHT22;1496;51.404;7.232;2023-04-25T05:28:21;5.70;99.90
2973;DHT22;1496;51.404;7.232;2023-04-25T05:31:12;5.70;99.90
2973;DHT22;1496;51.404;7.232;2023-04-25T05:33:54;5.80;99.90
2973;DHT22;1496;51.404;7.232;2023-04-25T05:36:22;5.70;99.90
2973;DHT22;1496;51.404;7.232;2023-04-25T05:38:49;5.80;99.90
2973;DHT22;1496;51.404;7.232;2023-04-25T05:41:20;5.80;99.90
2973;DHT22;1496;51.404;7.232;2023-04-25T05:44:01;5.80;99.90
2973;DHT22;1496;51.404;7.232;2023-04-25T05:46:34;5.90;99.90
2973;DHT22;1496;51.404;7.232;2023-04-25T05:49:20;5.90;99.90
2973;DHT22;1496;51.404;7.232;2023-04-25T05:51:59;6.00;99.90
2973;DHT22;1496;51.404;7.232;2023-04-25T05:54:45;6.00;99.90
2973;DHT22;1496;51.404;7.232;2023-04-25T05:57:20;6.00;99.90
2973;DHT22;1496;51.404;7.232;2023-04-25T05:59:47;6.30;99.90
2973;DHT22;1496;51.404;7.232;2023-04-25T06:02:14;6.30;99.90
2973;DHT22;1496;51.404;7.232;2023-04-25T06:04:42;6.30;99.90
2973;DHT22;1496;51.404;7.232;2023-04-25T06:07:10;6.30;99.90
2973;DHT22;1496;51.404;7.232;2023-04-25T06:09:37;6.40;99.90
2973;DHT22;1496;51.404;7.232;2023-04-25T06:12:06;6.40;99.90
2973;DHT22;1496;51.404;7.232;2023-04-25T06:14:34;6.50;99.90
2973;DHT22;1496;51.404;7.232;2023-04-25T06:17:00;6.60;99.90
2973;DHT22;1496;51.404;7.232;2023-04-25T06:19:33;6.60;99.90
2973;DHT22;1496;51.404;7.232;2023-04-25T06:22:01;6.60;99.90
2973;DHT22;1496;51.404;7.232;2023-04-25T06:24:28;6.70;99.90
2973;DHT22;1496;51.404;7.232;2023-04-25T06:26:55;6.70;99.90
2973;DHT22;1496;51.404;7.232;2023-04-25T06:29:22;6.80;99.90
2973;DHT22;1496;51.404;7.232;2023-04-25T06:31:49;6.80;99.90
2973;DHT22;1496;51.404;7.232;2023-04-25T06:34:17;6.80;99.90
2973;DHT22;1496;51.404;7.232;2023-04-25T06:36:43;6.90;99.90
2973;DHT22;1496;51.404;7.232;2023-04-25T06:39:14;6.90;99.90
2973;DHT22;1496;51.404;7.232;2023-04-25T06:41:43;7.10;99.90
2973;DHT22;1496;51.404;7.232;2023-04-25T06:44:30;7.00;99.60
2973;DHT22;1496;51.404;7.232;2023-04-25T06:46:58;7.00;88.60
2973;DHT22;1496;51.404;7.232;2023-04-25T06:49:26;6.90;91.10
2973;DHT22;1496;51.404;7.232;2023-04-25T06:51:53;6.90;84.90
2973;DHT22;1496;51.404;7.232;2023-04-25T06:54:21;6.90;92.70
2973;DHT22;1496;51.404;7.232;2023-04-25T06:57:01;7.20;90.00
2973;DHT22;1496;51.404;7.232;2023-04-25T06:59:28;7.50;84.40
2973;DHT22;1496;51.404;7.232;2023-04-25T07:01:55;7.70;71.80
2973;DHT22;1496;51.404;7.232;2023-04-25T07:04:25;7.80;67.90
2973;DHT22;1496;51.404;7.232;2023-04-25T07:06:55;7.80;54.40
2973;DHT22;1496;51.404;7.232;2023-04-25T07:09:45;7.60;40.60
2973;DHT22;1496;51.404;7.232;2023-04-25T07:12:11;7.70;40.40
2973;DHT22;1496;51.404;7.232;2023-04-25T07:14:38;7.60;32.90
2973;DHT22;1496;51.404;7.232;2023-04-25T07:17:06;7.60;32.40
2973;DHT22;1496;51.404;7.232;2023-04-25T07:19:34;7.30;24.70
2973;DHT22;1496;51.404;7.232;2023-04-25T07:22:02;7.30;29.70
2973;DHT22;1496;51.404;7.232;2023-04-25T07:24:29;7.20;29.70
2973;DHT22;1496;51.404;7.232;2023-04-25T07:26:57;6.90;27.90
2973;DHT22;1496;51.404;7.232;2023-04-25T07:29:29;6.70;30.30
2973;DHT22;1496;51.404;7.232;2023-04-25T07:31:58;6.60;30.80
2973;DHT22;1496;51.404;7.232;2023-04-25T07:34:27;6.60;31.30
2973;DHT22;1496;51.404;7.232;2023-04-25T07:36:53;6.70;33.60
2973;DHT22;1496;51.404;7.232;2023-04-25T07:39:23;6.80;28.20
2973;DHT22;1496;51.404;7.232;2023-04-25T07:41:49;6.90;27.80
2973;DHT22;1496;51.404;7.232;2023-04-25T07:44:22;7.00;23.90
2973;DHT22;1496;51.404;7.232;2023-04-25T07:46:50;7.00;18.80
2973;DHT22;1496;51.404;7.232;2023-04-25T07:49:17;7.20;16.30
2973;DHT22;1496;51.404;7.232;2023-04-25T07:51:44;7.20;13.10
2973;DHT22;1496;51.404;7.232;2023-04-25T07:54:14;7.40;10.40
2973;DHT22;1496;51.404;7.232;2023-04-25T07:56:49;7.40;8.00
2973;DHT22;1496;51.404;7.232;2023-04-25T07:59:16;7.40;6.00
2973;DHT22;1496;51.404;7.232;2023-04-25T08:01:43;7.50;3.00
2973;DHT22;1496;51.404;7.232;2023-04-25T08:04:10;7.50;1.60
2973;DHT22;1496;51.404;7.232;2023-04-25T08:06:55;7.40;1.00
2973;DHT22;1496;51.404;7.232;2023-04-25T08:09:26;7.40;1.00
2973;DHT22;1496;51.404;7.232;2023-04-25T08:11:53;7.50;1.00
2973;DHT22;1496;51.404;7.232;2023-04-25T08:14:27;7.60;1.00
2973;DHT22;1496;51.404;7.232;2023-04-25T08:16:55;7.70;1.00
2973;DHT22;1496;51.404;7.232;2023-04-25T08:19:23;7.60;1.00
2973;DHT22;1496;51.404;7.232;2023-04-25T08:21:51;7.80;1.00
2973;DHT22;1496;51.404;7.232;2023-04-25T08:24:24;7.90;1.00
2973;DHT22;1496;51.404;7.232;2023-04-25T08:26:51;8.20;1.00
2973;DHT22;1496;51.404;7.232;2023-04-25T08:29:20;8.10;1.00
2973;DHT22;1496;51.404;7.232;2023-04-25T08:31:51;8.10;1.00
2973;DHT22;1496;51.404;7.232;2023-04-25T08:34:19;7.80;1.00
2973;DHT22;1496;51.404;7.232;2023-04-25T08:36:48;8.00;1.00
2973;DHT22;1496;51.404;7.232;2023-04-25T08:39:24;8.00;1.00
2973;DHT22;1496;51.404;7.232;2023-04-25T08:42:12;8.10;1.00
2973;DHT22;1496;51.404;7.232;2023-04-25T08:44:39;8.20;1.00
2973;DHT22;1496;51.404;7.232;2023-04-25T08:47:06;8.10;1.00
2973;DHT22;1496;51.404;7.232;2023-04-25T08:49:45;8.30;1.00
2973;DHT22;1496;51.404;7.232;2023-04-25T08:52:14;8.40;1.00
2973;DHT22;1496;51.404;7.232;2023-04-25T08:54:48;8.60;1.00
2973;DHT22;1496;51.404;7.232;2023-04-25T08:57:17;8.70;1.00
2973;DHT22;1496;51.404;7.232;2023-04-25T08:59:47;8.40;1.00
2973;DHT22;1496;51.404;7.232;2023-04-25T09:02:15;8.50;1.00
2973;DHT22;1496;51.404;7.232;2023-04-25T09:04:48;8.70;1.00
2973;DHT22;1496;51.404;7.232;2023-04-25T09:07:15;8.90;1.00
2973;DHT22;1496;51.404;7.232;2023-04-25T09:09:45;8.90;1.00
2973;DHT22;1496;51.404;7.232;2023-04-25T09:12:20;8.80;1.00
2973;DHT22;1496;51.404;7.232;2023-04-25T09:15:12;8.80;1.00
2973;DHT22;1496;51.404;7.232;2023-04-25T09:18:30;8.70;1.00
2973;DHT22;1496;51.404;7.232;2023-04-25T09:21:07;8.70;1.00
2973;DHT22;1496;51.404;7.232;2023-04-25T09:23:49;9.20;1.00
2973;DHT22;1496;51.404;7.232;2023-04-25T09:26:20;9.20;1.00
2973;DHT22;1496;51.404;7.232;2023-04-25T09:28:49;9.30;1.00
2973;DHT22;1496;51.404;7.232;2023-04-25T09:31:33;9.20;1.00
2973;DHT22;1496;51.404;7.232;2023-04-25T09:34:04;8.90;1.00
2973;DHT22;1496;51.404;7.232;2023-04-25T09:36:39;9.10;1.00
2973;DHT22;1496;51.404;7.232;2023-04-25T09:39:15;9.20;1.00
2973;DHT22;1496;51.404;7.232;2023-04-25T09:41:54;9.20;1.00
2973;DHT22;1496;51.404;7.232;2023-04-25T09:44:24;9.10;1.00
2973;DHT22;1496;51.404;7.232;2023-04-25T09:46:54;9.00;1.00
2973;DHT22;1496;51.404;7.232;2023-04-25T09:49:25;8.80;1.00
2973;DHT22;1496;51.404;7.232;2023-04-25T09:52:15;9.00;1.00
2973;DHT22;1496;51.404;7.232;2023-04-25T09:54:52;9.20;1.00
2973;DHT22;1496;51.404;7.232;2023-04-25T09:57:28;9.30;1.00
2973;DHT22;1496;51.404;7.232;2023-04-25T10:00:00;9.50;1.00
2973;DHT22;1496;51.404;7.232;2023-04-25T10:02:42;9.50;1.00
2973;DHT22;1496;51.404;7.232;2023-04-25T10:05:19;9.50;1.00
2973;DHT22;1496;51.404;7.232;2023-04-25T10:07:46;9.50;1.00
2973;DHT22;1496;51.404;7.232;2023-04-25T10:10:16;9.30;1.00
2973;DHT22;1496;51.404;7.232;2023-04-25T10:12:45;9.20;1.00
2973;DHT22;1496;51.404;7.232;2023-04-25T10:15:16;9.30;1.00
2973;DHT22;1496;51.404;7.232;2023-04-25T10:17:43;9.00;1.00
2973;DHT22;1496;51.404;7.232;2023-04-25T10:20:10;9.00;1.00
2973;DHT22;1496;51.404;7.232;2023-04-25T10:22:41;9.10;1.00
2973;DHT22;1496;51.404;7.232;2023-04-25T10:25:10;9.10;1.00
2973;DHT22;1496;51.404;7.232;2023-04-25T10:27:39;9.00;1.00
2973;DHT22;1496;51.404;7.232;2023-04-25T10:32:39;9.40;1.00
2973;DHT22;1496;51.404;7.232;2023-04-25T10:35:19;9.60;1.00
2973;DHT22;1496;51.404;7.232;2023-04-25T10:38:00;9.80;1.00
2973;DHT22;1496;51.404;7.232;2023-04-25T10:40:33;9.50;1.00
2973;DHT22;1496;51.404;7.232;2023-04-25T10:43:34;9.20;1.00
2973;DHT22;1496;51.404;7.232;2023-04-25T10:46:01;9.00;1.00
2973;DHT22;1496;51.404;7.232;2023-04-25T10:48:31;8.90;1.00
2973;DHT22;1496;51.404;7.232;2023-04-25T10:51:34;8.70;1.00
2973;DHT22;1496;51.404;7.232;2023-04-25T10:54:03;8.70;1.00
2973;DHT22;1496;51.404;7.232;2023-04-25T10:56:36;8.60;1.00
2973;DHT22;1496;51.404;7.232;2023-04-25T10:59:11;8.50;1.00
2973;DHT22;1496;51.404;7.232;2023-04-25T11:01:44;8.50;1.00
2973;DHT22;1496;51.404;7.232;2023-04-25T11:04:25;8.60;1.00
2973;DHT22;1496;51.404;7.232;2023-04-25T11:09:38;9.00;1.00
2973;DHT22;1496;51.404;7.232;2023-04-25T11:12:08;9.00;1.00
2973;DHT22;1496;51.404;7.232;2023-04-25T11:14:36;9.10;1.00
2973;DHT22;1496;51.404;7.232;2023-04-25T11:17:03;9.00;1.00
2973;DHT22;1496;51.404;7.232;2023-04-25T11:19:30;8.80;1.00
2973;DHT22;1496;51.404;7.232;2023-04-25T11:22:00;8.70;1.00
2973;DHT22;1496;51.404;7.232;2023-04-25T11:24:32;8.60;1.00
2973;DHT22;1496;51.404;7.232;2023-04-25T11:27:02;8.40;1.00
2973;DHT22;1496;51.404;7.232;2023-04-25T11:29:30;8.30;1.00
2973;DHT22;1496;51.404;7.232;2023-04-25T11:31:58;8.30;1.00
2973;DHT22;1496;51.404;7.232;2023-04-25T11:34:28;8.30;1.00
2973;DHT22;1496;51.404;7.232;2023-04-25T11:37:00;8.20;1.00
2973;DHT22;1496;51.404;7.232;2023-04-25T11:39:29;8.10;1.00
2973;DHT22;1496;51.404;7.232;2023-04-25T11:41:55;8.10;1.00
2973;DHT22;1496;51.404;7.232;2023-04-25T11:44:23;8.00;1.00
2973;DHT22;1496;51.404;7.232;2023-04-25T11:46:51;7.90;1.00
2973;DHT22;1496;51.404;7.232;2023-04-25T11:49:19;8.10;1.00
2973;DHT22;1496;51.404;7.232;2023-04-25T11:51:47;8.30;1.00
2973;DHT22;1496;51.404;7.232;2023-04-25T11:54:14;8.50;1.00
2973;DHT22;1496;51.404;7.232;2023-04-25T11:56:45;8.70;1.00
2973;DHT22;1496;51.404;7.232;2023-04-25T11:59:23;8.90;1.00
2973;DHT22;1496;51.404;7.232;2023-04-25T12:01:51;9.30;1.00
2973;DHT22;1496;51.404;7.232;2023-04-25T12:04:19;9.60;1.00
2973;DHT22;1496;51.404;7.232;2023-04-25T12:06:47;9.90;1.00
2973;DHT22;1496;51.404;7.232;2023-04-25T12:09:16;10.10;1.00
2973;DHT22;1496;51.404;7.232;2023-04-25T12:11:58;10.10;1.00
2973;DHT22;1496;51.404;7.232;2023-04-25T12:14:27;10.20;1.00
2973;DHT22;1496;51.404;7.232;2023-04-25T12:16:56;10.30;1.00
2973;DHT22;1496;51.404;7.232;2023-04-25T12:19:25;10.60;1.00
2973;DHT22;1496;51.404;7.232;2023-04-25T12:21:52;10.80;1.00
2973;DHT22;1496;51.404;7.232;2023-04-25T12:24:22;10.70;1.00
2973;DHT22;1496;51.404;7.232;2023-04-25T12:29:23;10.50;1.00
2973;DHT22;1496;51.404;7.232;2023-04-25T12:31:53;10.30;1.00
2973;DHT22;1496;51.404;7.232;2023-04-25T12:34:20;10.00;1.00
2973;DHT22;1496;51.404;7.232;2023-04-25T12:36:48;9.70;1.00
2973;DHT22;1496;51.404;7.232;2023-04-25T12:39:16;9.80;1.00
2973;DHT22;1496;51.404;7.232;2023-04-25T12:41:44;9.60;1.00
2973;DHT22;1496;51.404;7.232;2023-04-25T12:44:13;9.40;1.00
2973;DHT22;1496;51.404;7.232;2023-04-25T12:46:41;9.50;1.00
2973;DHT22;1496;51.404;7.232;2023-04-25T12:49:08;9.50;1.00
2973;DHT22;1496;51.404;7.232;2023-04-25T12:51:36;9.70;1.00
2973;DHT22;1496;51.404;7.232;2023-04-25T12:54:07;9.60;1.00
2973;DHT22;1496;51.404;7.232;2023-04-25T12:56:34;9.70;1.00
2973;DHT22;1496;51.404;7.232;2023-04-25T12:59:03;9.90;1.00
2973;DHT22;1496;51.404;7.232;2023-04-25T13:01:32;9.90;1.00
2973;DHT22;1496;51.404;7.232;2023-04-25T13:03:59;9.90;1.00
2973;DHT22;1496;51.404;7.232;2023-04-25T13:06:26;9.70;1.00
2973;DHT22;1496;51.404;7.232;2023-04-25T13:08:52;9.80;1.00
2973;DHT22;1496;51.404;7.232;2023-04-25T13:11:21;9.80;1.00
2973;DHT22;1496;51.404;7.232;2023-04-25T13:13:48;9.80;1.00
2973;DHT22;1496;51.404;7.232;2023-04-25T13:16:15;9.60;1.00
2973;DHT22;1496;51.404;7.232;2023-04-25T13:18:41;9.40;1.00
2973;DHT22;1496;51.404;7.232;2023-04-25T13:21:11;9.10;1.00
2973;DHT22;1496;51.404;7.232;2023-04-25T13:23:38;9.00;1.00
2973;DHT22;1496;51.404;7.232;2023-04-25T13:26:04;8.80;1.00
2973;DHT22;1496;51.404;7.232;2023-04-25T13:28:32;8.80;1.00
2973;DHT22;1496;51.404;7.232;2023-04-25T13:30:58;8.80;1.00
2973;DHT22;1496;51.404;7.232;2023-04-25T13:33:26;8.80;1.00
2973;DHT22;1496;51.404;7.232;2023-04-25T13:35:52;8.70;1.00
2973;DHT22;1496;51.404;7.232;2023-04-25T13:38:26;8.80;1.00
2973;DHT22;1496;51.404;7.232;2023-04-25T13:40:54;8.80;1.00
2973;DHT22;1496;51.404;7.232;2023-04-25T13:43:22;8.70;1.00
2973;DHT22;1496;51.404;7.232;2023-04-25T13:45:51;8.80;1.00
2973;DHT22;1496;51.404;7.232;2023-04-25T13:48:18;8.60;1.00
2973;DHT22;1496;51.404;7.232;2023-04-25T13:50:46;8.70;1.00
2973;DHT22;1496;51.404;7.232;2023-04-25T13:53:15;8.70;1.00
2973;DHT22;1496;51.404;7.232;2023-04-25T13:55:42;8.60;1.00
2973;DHT22;1496;51.404;7.232;2023-04-25T13:58:08;8.70;1.00
2973;DHT22;1496;51.404;7.232;2023-04-25T14:00:37;8.70;1.00
2973;DHT22;1496;51.404;7.232;2023-04-25T14:03:06;8.70;1.00
2973;DHT22;1496;51.404;7.232;2023-04-25T14:05:35;8.70;1.00
2973;DHT22;1496;51.404;7.232;2023-04-25T14:08:08;8.70;1.00
2973;DHT22;1496;51.404;7.232;2023-04-25T14:10:37;8.80;1.00
2973;DHT22;1496;51.404;7.232;2023-04-25T14:13:04;9.00;1.00
2973;DHT22;1496;51.404;7.232;2023-04-25T14:15:34;9.40;1.00
2973;DHT22;1496;51.404;7.232;2023-04-25T14:18:02;9.60;1.00
2973;DHT22;1496;51.404;7.232;2023-04-25T14:20:31;9.90;1.00
2973;DHT22;1496;51.404;7.232;2023-04-25T14:22:58;10.00;1.00
2973;DHT22;1496;51.404;7.232;2023-04-25T14:25:25;10.10;1.00
2973;DHT22;1496;51.404;7.232;2023-04-25T14:27:51;10.20;1.00
2973;DHT22;1496;51.404;7.232;2023-04-25T14:30:20;10.30;1.00
2973;DHT22;1496;51.404;7.232;2023-04-25T14:32:51;10.30;1.00
2973;DHT22;1496;51.404;7.232;2023-04-25T14:35:18;10.40;1.00
2973;DHT22;1496;51.404;7.232;2023-04-25T14:37:46;10.50;1.00
2973;DHT22;1496;51.404;7.232;2023-04-25T14:40:14;10.50;1.00
2973;DHT22;1496;51.404;7.232;2023-04-25T14:42:41;10.70;1.00
2973;DHT22;1496;51.404;7.232;2023-04-25T14:45:09;10.40;1.00
2973;DHT22;1496;51.404;7.232;2023-04-25T14:47:37;10.30;1.00
2973;DHT22;1496;51.404;7.232;2023-04-25T14:50:05;10.00;1.00
2973;DHT22;1496;51.404;7.232;2023-04-25T14:52:32;9.90;1.00
2973;DHT22;1496;51.404;7.232;2023-04-25T14:54:59;9.80;1.00
2973;DHT22;1496;51.404;7.232;2023-04-25T14:57:33;9.70;1.00
2973;DHT22;1496;51.404;7.232;2023-04-25T14:59:59;9.80;1.00
2973;DHT22;1496;51.404;7.232;2023-04-25T15:02:28;10.00;1.00
2973;DHT22;1496;51.404;7.232;2023-04-25T15:04:56;10.00;1.00
2973;DHT22;1496;51.404;7.232;2023-04-25T15:07:24;9.90;1.00
2973;DHT22;1496;51.404;7.232;2023-04-25T15:09:50;9.80;1.00
2973;DHT22;1496;51.404;7.232;2023-04-25T15:12:17;9.80;1.00
2973;DHT22;1496;51.404;7.232;2023-04-25T15:14:44;9.70;1.00
2973;DHT22;1496;51.404;7.232;2023-04-25T15:17:13;9.70;1.00
2973;DHT22;1496;51.404;7.232;2023-04-25T15:19:41;9.80;1.00
2973;DHT22;1496;51.404;7.232;2023-04-25T15:22:08;9.80;1.00
2973;DHT22;1496;51.404;7.232;2023-04-25T15:24:35;9.80;1.00
2973;DHT22;1496;51.404;7.232;2023-04-25T15:27:02;9.70;1.00
2973;DHT22;1496;51.404;7.232;2023-04-25T15:29:31;9.80;1.00
2973;DHT22;1496;51.404;7.232;2023-04-25T15:31:57;9.80;1.00
2973;DHT22;1496;51.404;7.232;2023-04-25T15:34:24;9.70;1.00
2973;DHT22;1496;51.404;7.232;2023-04-25T15:36:51;9.70;1.00
2973;DHT22;1496;51.404;7.232;2023-04-25T15:39:18;9.90;1.00
2973;DHT22;1496;51.404;7.232;2023-04-25T15:41:46;10.00;1.00
2973;DHT22;1496;51.404;7.232;2023-04-25T15:44:12;10.10;1.00
2973;DHT22;1496;51.404;7.232;2023-04-25T15:46:39;10.20;1.00
2973;DHT22;1496;51.404;7.232;2023-04-25T15:49:06;10.10;1.00
2973;DHT22;1496;51.404;7.232;2023-04-25T15:51:33;10.20;1.00
2973;DHT22;1496;51.404;7.232;2023-04-25T15:54:00;10.30;1.00
2973;DHT22;1496;51.404;7.232;2023-04-25T15:56:27;10.30;1.00
2973;DHT22;1496;51.404;7.232;2023-04-25T15:58:53;10.30;1.00
2973;DHT22;1496;51.404;7.232;2023-04-25T16:01:21;10.30;1.00
2973;DHT22;1496;51.404;7.232;2023-04-25T16:03:50;10.30;1.00
2973;DHT22;1496;51.404;7.232;2023-04-25T16:06:17;10.10;1.00
2973;DHT22;1496;51.404;7.232;2023-04-25T16:08:43;10.10;1.00
2973;DHT22;1496;51.404;7.232;2023-04-25T16:11:10;10.10;1.00
2973;DHT22;1496;51.404;7.232;2023-04-25T16:13:39;10.10;1.00
2973;DHT22;1496;51.404;7.232;2023-04-25T16:16:06;10.00;1.00
2973;DHT22;1496;51.404;7.232;2023-04-25T16:18:33;10.20;1.00
2973;DHT22;1496;51.404;7.232;2023-04-25T16:21:00;10.30;1.00
2973;DHT22;1496;51.404;7.232;2023-04-25T16:23:26;10.30;1.00
2973;DHT22;1496;51.404;7.232;2023-04-25T16:25:54;10.30;1.00
2973;DHT22;1496;51.404;7.232;2023-04-25T16:28:21;10.20;1.00
2973;DHT22;1496;51.404;7.232;2023-04-25T16:30:48;10.20;1.00
2973;DHT22;1496;51.404;7.232;2023-04-25T16:33:15;10.00;1.00
2973;DHT22;1496;51.404;7.232;2023-04-25T16:35:42;10.00;1.00
2973;DHT22;1496;51.404;7.232;2023-04-25T16:38:09;10.00;1.00
2973;DHT22;1496;51.404;7.232;2023-04-25T16:40:37;9.80;1.00
2973;DHT22;1496;51.404;7.232;2023-04-25T16:43:04;9.80;1.00
2973;DHT22;1496;51.404;7.232;2023-04-25T16:45:32;9.60;1.00
2973;DHT22;1496;51.404;7.232;2023-04-25T16:47:58;9.70;1.00
2973;DHT22;1496;51.404;7.232;2023-04-25T16:50:24;9.70;1.00
2973;DHT22;1496;51.404;7.232;2023-04-25T16:52:53;9.70;1.00
2973;DHT22;1496;51.404;7.232;2023-04-25T16:55:21;9.60;1.00